sensor_id;sensor_type;location;lat;lon;timestamp;temperature;humidity
65972;SHT31;52726;48.852;9.152;2023-02-28T00:02:07;-2.09;68.97
65972;SHT31;52726;48.852;9.152;2023-02-28T00:04:33;-2.06;69.20
65972;SHT31;52726;48.852;9.152;2023-02-28T00:06:59;-2.02;69.10
65972;SHT31;52726;48.852;9.152;2023-02-28T00:09:26;-2.05;69.84
65972;SHT31;52726;48.852;9.152;2023-02-28T00:11:52;-2.03;69.61
65972;SHT31;52726;48.852;9.152;2023-02-28T00:14:18;-2.01;69.51
65972;SHT31;52726;48.852;9.152;2023-02-28T00:16:43;-2.02;69.86
65972;SHT31;52726;48.852;9.152;2023-02-28T00:19:08;-2.03;69.99
65972;SHT31;52726;48.852;9.152;2023-02-28T00:21:34;-2.03;70.15
65972;SHT31;52726;48.852;9.152;2023-02-28T00:24:00;-2.08;70.43
65972;SHT31;52726;48.852;9.152;2023-02-28T00:26:30;-2.08;70.55
65972;SHT31;52726;48.852;9.152;2023-02-28T00:28:56;-2.09;70.89
65972;SHT31;52726;48.852;9.152;2023-02-28T00:31:27;-2.12;71.09
65972;SHT31;52726;48.852;9.152;2023-02-28T00:33:53;-2.15;71.02
65972;SHT31;52726;48.852;9.152;2023-02-28T00:36:18;-2.13;71.33
65972;SHT31;52726;48.852;9.152;2023-02-28T00:38:44;-2.13;71.58
65972;SHT31;52726;48.852;9.152;2023-02-28T00:41:09;-2.15;71.73
65972;SHT31;52726;48.852;9.152;2023-02-28T00:43:36;-2.12;71.64
65972;SHT31;52726;48.852;9.152;2023-02-28T00:46:03;-2.15;71.76
65972;SHT31;52726;48.852;9.152;2023-02-28T00:48:28;-2.13;71.94
65972;SHT31;52726;48.852;9.152;2023-02-28T00:50:54;-2.15;72.27
65972;SHT31;52726;48.852;9.152;2023-02-28T00:53:19;-2.19;72.51
65972;SHT31;52726;48.852;9.152;2023-02-28T00:55:45;-2.16;72.75
65972;SHT31;52726;48.852;9.152;2023-02-28T00:58:11;-2.19;72.74
65972;SHT31;52726;48.852;9.152;2023-02-28T01:00:36;-2.22;73.00
65972;SHT31;52726;48.852;9.152;2023-02-28T01:03:02;-2.25;73.46
65972;SHT31;52726;48.852;9.152;2023-02-28T01:05:27;-2.23;73.37
65972;SHT31;52726;48.852;9.152;2023-02-28T01:07:52;-2.23;73.46
65972;SHT31;52726;48.852;9.152;2023-02-28T01:10:18;-2.26;73.79
65972;SHT31;52726;48.852;9.152;2023-02-28T01:12:43;-2.25;73.78
65972;SHT31;52726;48.852;9.152;2023-02-28T01:15:10;-2.23;74.22
65972;SHT31;52726;48.852;9.152;2023-02-28T01:17:36;-2.25;74.25
65972;SHT31;52726;48.852;9.152;2023-02-28T01:20:02;-2.28;74.38
65972;SHT31;52726;48.852;9.152;2023-02-28T01:22:27;-2.25;74.17
65972;SHT31;52726;48.852;9.152;2023-02-28T01:24:53;-2.25;74.56
65972;SHT31;52726;48.852;9.152;2023-02-28T01:27:19;-2.23;74.60
65972;SHT31;52726;48.852;9.152;2023-02-28T01:29:44;-2.23;74.69
65972;SHT31;52726;48.852;9.152;2023-02-28T01:32:10;-2.22;74.66
65972;SHT31;52726;48.852;9.152;2023-02-28T01:34:35;-2.25;74.74
65972;SHT31;52726;48.852;9.152;2023-02-28T01:37:01;-2.28;74.93
65972;SHT31;52726;48.852;9.152;2023-02-28T01:39:26;-2.29;75.30
65972;SHT31;52726;48.852;9.152;2023-02-28T01:41:51;-2.30;75.28
65972;SHT31;52726;48.852;9.152;2023-02-28T01:47:22;-2.39;75.82
65972;SHT31;52726;48.852;9.152;2023-02-28T01:49:48;-2.40;75.88
65972;SHT31;52726;48.852;9.152;2023-02-28T01:52:13;-2.39;75.83
65972;SHT31;52726;48.852;9.152;2023-02-28T01:54:45;-2.40;75.92
65972;SHT31;52726;48.852;9.152;2023-02-28T01:57:16;-2.43;76.15
65972;SHT31;52726;48.852;9.152;2023-02-28T02:00:10;-2.40;76.16
65972;SHT31;52726;48.852;9.152;2023-02-28T02:02:38;-2.40;75.96
65972;SHT31;52726;48.852;9.152;2023-02-28T02:05:15;-2.40;76.18
65972;SHT31;52726;48.852;9.152;2023-02-28T02:07:43;-2.45;76.36
65972;SHT31;52726;48.852;9.152;2023-02-28T02:10:13;-2.49;76.54
65972;SHT31;52726;48.852;9.152;2023-02-28T02:15:55;-2.54;77.05
65972;SHT31;52726;48.852;9.152;2023-02-28T02:26:58;-2.50;77.27
65972;SHT31;52726;48.852;9.152;2023-02-28T02:29:50;-2.53;77.25
65972;SHT31;52726;48.852;9.152;2023-02-28T02:35:38;-2.52;77.75
65972;SHT31;52726;48.852;9.152;2023-02-28T02:40:49;-2.53;77.95
65972;SHT31;52726;48.852;9.152;2023-02-28T02:43:24;-2.49;77.97
65972;SHT31;52726;48.852;9.152;2023-02-28T02:45:59;-2.45;78.07
65972;SHT31;52726;48.852;9.152;2023-02-28T02:48:29;-2.43;78.07
65972;SHT31;52726;48.852;9.152;2023-02-28T02:50:59;-2.46;78.16
65972;SHT31;52726;48.852;9.152;2023-02-28T02:53:31;-2.40;78.04
65972;SHT31;52726;48.852;9.152;2023-02-28T02:55:59;-2.36;78.20
65972;SHT31;52726;48.852;9.152;2023-02-28T02:58:29;-2.37;78.28
65972;SHT31;52726;48.852;9.152;2023-02-28T03:00:59;-2.33;78.07
65972;SHT31;52726;48.852;9.152;2023-02-28T03:03:27;-2.35;78.26
65972;SHT31;52726;48.852;9.152;2023-02-28T03:05:58;-2.29;78.27
65972;SHT31;52726;48.852;9.152;2023-02-28T03:08:24;-2.28;78.43
65972;SHT31;52726;48.852;9.152;2023-02-28T03:10:51;-2.29;78.55
65972;SHT31;52726;48.852;9.152;2023-02-28T03:22:08;-2.22;78.71
65972;SHT31;52726;48.852;9.152;2023-02-28T03:30:24;-2.21;78.47
65972;SHT31;52726;48.852;9.152;2023-02-28T03:33:11;-2.13;78.24
65972;SHT31;52726;48.852;9.152;2023-02-28T03:35:42;-2.16;78.62
65972;SHT31;52726;48.852;9.152;2023-02-28T03:38:30;-2.13;78.26
65972;SHT31;52726;48.852;9.152;2023-02-28T03:41:06;-2.12;78.31
65972;SHT31;52726;48.852;9.152;2023-02-28T03:43:35;-2.10;78.48
65972;SHT31;52726;48.852;9.152;2023-02-28T03:46:04;-2.09;78.20
65972;SHT31;52726;48.852;9.152;2023-02-28T03:48:45;-2.06;78.28
65972;SHT31;52726;48.852;9.152;2023-02-28T03:51:19;-2.05;78.08
65972;SHT31;52726;48.852;9.152;2023-02-28T03:53:54;-2.05;78.14
65972;SHT31;52726;48.852;9.152;2023-02-28T03:56:27;-2.03;78.09
65972;SHT31;52726;48.852;9.152;2023-02-28T03:59:17;-2.03;78.22
65972;SHT31;52726;48.852;9.152;2023-02-28T04:01:46;-2.01;77.89
65972;SHT31;52726;48.852;9.152;2023-02-28T04:04:13;-2.01;78.34
65972;SHT31;52726;48.852;9.152;2023-02-28T04:06:40;-1.99;78.28
65972;SHT31;52726;48.852;9.152;2023-02-28T04:09:06;-2.01;78.25
65972;SHT31;52726;48.852;9.152;2023-02-28T04:13:58;-1.92;77.73
65972;SHT31;52726;48.852;9.152;2023-02-28T04:16:23;-1.87;77.48
65972;SHT31;52726;48.852;9.152;2023-02-28T04:18:48;-1.91;77.76
65972;SHT31;52726;48.852;9.152;2023-02-28T04:21:14;-1.95;78.29
65972;SHT31;52726;48.852;9.152;2023-02-28T04:23:39;-1.97;78.08
65972;SHT31;52726;48.852;9.152;2023-02-28T04:26:05;-1.91;78.07
65972;SHT31;52726;48.852;9.152;2023-02-28T04:28:31;-1.91;77.90
65972;SHT31;52726;48.852;9.152;2023-02-28T04:31:03;-1.92;78.02
65972;SHT31;52726;48.852;9.152;2023-02-28T04:33:29;-1.89;78.23
65972;SHT31;52726;48.852;9.152;2023-02-28T04:36:06;-1.91;78.17
65972;SHT31;52726;48.852;9.152;2023-02-28T04:38:37;-1.94;78.25
65972;SHT31;52726;48.852;9.152;2023-02-28T04:41:02;-1.92;78.14
65972;SHT31;52726;48.852;9.152;2023-02-28T04:43:29;-1.91;78.31
65972;SHT31;52726;48.852;9.152;2023-02-28T04:46:02;-1.88;78.03
65972;SHT31;52726;48.852;9.152;2023-02-28T04:48:29;-1.82;78.00
65972;SHT31;52726;48.852;9.152;2023-02-28T04:50:54;-1.72;76.98
65972;SHT31;52726;48.852;9.152;2023-02-28T04:53:20;-1.81;77.79
65972;SHT31;52726;48.852;9.152;2023-02-28T04:55:45;-1.84;78.00
65972;SHT31;52726;48.852;9.152;2023-02-28T04:58:13;-1.84;78.00
65972;SHT31;52726;48.852;9.152;2023-02-28T05:00:39;-1.87;78.28
65972;SHT31;52726;48.852;9.152;2023-02-28T05:03:04;-1.84;78.15
65972;SHT31;52726;48.852;9.152;2023-02-28T05:05:30;-1.78;77.34
65972;SHT31;52726;48.852;9.152;2023-02-28T05:07:55;-1.80;77.79
65972;SHT31;52726;48.852;9.152;2023-02-28T05:10:22;-1.80;77.77
65972;SHT31;52726;48.852;9.152;2023-02-28T05:12:47;-1.81;77.93
65972;SHT31;52726;48.852;9.152;2023-02-28T05:15:14;-1.75;77.73
65972;SHT31;52726;48.852;9.152;2023-02-28T05:17:40;-1.77;77.91
65972;SHT31;52726;48.852;9.152;2023-02-28T05:20:06;-1.59;76.43
65972;SHT31;52726;48.852;9.152;2023-02-28T05:22:32;-1.68;77.03
65972;SHT31;52726;48.852;9.152;2023-02-28T05:24:57;-1.71;77.33
65972;SHT31;52726;48.852;9.152;2023-02-28T05:27:23;-1.74;77.89
65972;SHT31;52726;48.852;9.152;2023-02-28T05:29:48;-1.75;77.76
65972;SHT31;52726;48.852;9.152;2023-02-28T05:32:13;-1.77;77.91
65972;SHT31;52726;48.852;9.152;2023-02-28T05:34:39;-1.72;77.69
65972;SHT31;52726;48.852;9.152;2023-02-28T05:37:05;-1.75;77.94
65972;SHT31;52726;48.852;9.152;2023-02-28T05:39:32;-1.74;78.00
65972;SHT31;52726;48.852;9.152;2023-02-28T05:41:57;-1.75;77.91
65972;SHT31;52726;48.852;9.152;2023-02-28T05:44:22;-1.72;77.59
65972;SHT31;52726;48.852;9.152;2023-02-28T05:46:48;-1.75;77.75
65972;SHT31;52726;48.852;9.152;2023-02-28T05:49:13;-1.74;77.69
65972;SHT31;52726;48.852;9.152;2023-02-28T05:51:38;-1.75;78.03
65972;SHT31;52726;48.852;9.152;2023-02-28T05:54:05;-1.66;77.76
65972;SHT31;52726;48.852;9.152;2023-02-28T05:56:31;-1.68;77.73
65972;SHT31;52726;48.852;9.152;2023-02-28T05:58:57;-1.70;77.82
65972;SHT31;52726;48.852;9.152;2023-02-28T06:03:58;-1.67;77.89
65972;SHT31;52726;48.852;9.152;2023-02-28T06:06:23;-1.64;77.65
65972;SHT31;52726;48.852;9.152;2023-02-28T06:08:49;-1.68;77.55
65972;SHT31;52726;48.852;9.152;2023-02-28T06:11:14;-1.68;77.56
65972;SHT31;52726;48.852;9.152;2023-02-28T06:13:39;-1.68;77.43
65972;SHT31;52726;48.852;9.152;2023-02-28T06:16:05;-1.61;77.59
65972;SHT31;52726;48.852;9.152;2023-02-28T06:18:30;-1.51;76.82
65972;SHT31;52726;48.852;9.152;2023-02-28T06:20:56;-1.59;77.23
65972;SHT31;52726;48.852;9.152;2023-02-28T06:23:21;-1.61;77.09
65972;SHT31;52726;48.852;9.152;2023-02-28T06:25:47;-1.60;76.84
65972;SHT31;52726;48.852;9.152;2023-02-28T06:28:14;-1.57;77.20
65972;SHT31;52726;48.852;9.152;2023-02-28T06:30:40;-1.47;76.19
65972;SHT31;52726;48.852;9.152;2023-02-28T06:33:05;-1.47;76.24
65972;SHT31;52726;48.852;9.152;2023-02-28T06:35:31;-1.51;77.04
65972;SHT31;52726;48.852;9.152;2023-02-28T06:37:56;-1.36;75.44
65972;SHT31;52726;48.852;9.152;2023-02-28T06:40:22;-1.47;76.33
65972;SHT31;52726;48.852;9.152;2023-02-28T06:42:47;-1.33;75.38
65972;SHT31;52726;48.852;9.152;2023-02-28T06:45:13;-1.40;76.00
65972;SHT31;52726;48.852;9.152;2023-02-28T06:47:40;-1.46;76.28
65972;SHT31;52726;48.852;9.152;2023-02-28T06:50:10;-1.33;75.92
65972;SHT31;52726;48.852;9.152;2023-02-28T06:52:36;-1.19;74.86
65972;SHT31;52726;48.852;9.152;2023-02-28T06:55:06;-1.29;75.16
65972;SHT31;52726;48.852;9.152;2023-02-28T06:57:33;-1.28;75.44
65972;SHT31;52726;48.852;9.152;2023-02-28T07:00:00;-1.26;75.41
65972;SHT31;52726;48.852;9.152;2023-02-28T07:02:26;-1.29;75.57
65972;SHT31;52726;48.852;9.152;2023-02-28T07:04:52;-1.28;75.93
65972;SHT31;52726;48.852;9.152;2023-02-28T07:07:17;-1.15;74.75
65972;SHT31;52726;48.852;9.152;2023-02-28T07:09:43;-1.20;75.46
65972;SHT31;52726;48.852;9.152;2023-02-28T07:12:09;-1.29;75.99
65972;SHT31;52726;48.852;9.152;2023-02-28T07:14:36;-1.33;75.88
65972;SHT31;52726;48.852;9.152;2023-02-28T07:17:02;-1.32;75.60
65972;SHT31;52726;48.852;9.152;2023-02-28T07:19:27;-1.29;75.37
65972;SHT31;52726;48.852;9.152;2023-02-28T07:21:53;-1.28;75.65
65972;SHT31;52726;48.852;9.152;2023-02-28T07:24:18;-1.23;75.60
65972;SHT31;52726;48.852;9.152;2023-02-28T07:26:44;-1.15;75.52
65972;SHT31;52726;48.852;9.152;2023-02-28T07:29:09;-1.06;74.11
65972;SHT31;52726;48.852;9.152;2023-02-28T07:31:34;-1.09;74.62
65972;SHT31;52726;48.852;9.152;2023-02-28T07:34:00;-1.23;74.90
65972;SHT31;52726;48.852;9.152;2023-02-28T07:36:25;-1.23;75.59
65972;SHT31;52726;48.852;9.152;2023-02-28T07:38:51;-1.22;76.04
65972;SHT31;52726;48.852;9.152;2023-02-28T07:41:19;-1.23;75.88
65972;SHT31;52726;48.852;9.152;2023-02-28T07:43:44;-1.13;75.04
65972;SHT31;52726;48.852;9.152;2023-02-28T07:46:12;-1.17;75.56
65972;SHT31;52726;48.852;9.152;2023-02-28T07:48:40;-1.17;75.57
65972;SHT31;52726;48.852;9.152;2023-02-28T07:51:06;-1.19;75.30
65972;SHT31;52726;48.852;9.152;2023-02-28T07:53:32;-1.23;75.43
65972;SHT31;52726;48.852;9.152;2023-02-28T07:55:58;-1.15;75.46
65972;SHT31;52726;48.852;9.152;2023-02-28T07:58:24;-1.16;75.58
65972;SHT31;52726;48.852;9.152;2023-02-28T08:00:50;-1.13;75.69
65972;SHT31;52726;48.852;9.152;2023-02-28T08:03:17;-1.09;75.31
65972;SHT31;52726;48.852;9.152;2023-02-28T08:05:43;-1.09;74.99
65972;SHT31;52726;48.852;9.152;2023-02-28T08:08:09;-1.09;74.92
65972;SHT31;52726;48.852;9.152;2023-02-28T08:10:34;-0.99;75.07
65972;SHT31;52726;48.852;9.152;2023-02-28T08:13:00;-0.87;73.91
65972;SHT31;52726;48.852;9.152;2023-02-28T08:15:26;-0.91;74.06
65972;SHT31;52726;48.852;9.152;2023-02-28T08:17:51;-0.94;74.88
65972;SHT31;52726;48.852;9.152;2023-02-28T08:20:17;-0.98;74.28
65972;SHT31;52726;48.852;9.152;2023-02-28T08:22:42;-0.88;73.69
65972;SHT31;52726;48.852;9.152;2023-02-28T08:25:08;-0.92;74.35
65972;SHT31;52726;48.852;9.152;2023-02-28T08:27:34;-0.78;73.96
65972;SHT31;52726;48.852;9.152;2023-02-28T08:29:59;-0.81;73.19
65972;SHT31;52726;48.852;9.152;2023-02-28T08:32:25;-0.85;74.50
65972;SHT31;52726;48.852;9.152;2023-02-28T08:34:50;-0.83;74.61
65972;SHT31;52726;48.852;9.152;2023-02-28T08:37:16;-0.81;74.47
65972;SHT31;52726;48.852;9.152;2023-02-28T08:39:41;-0.73;74.27
65972;SHT31;52726;48.852;9.152;2023-02-28T08:42:07;-0.67;74.06
65972;SHT31;52726;48.852;9.152;2023-02-28T08:44:32;-0.64;73.89
65972;SHT31;52726;48.852;9.152;2023-02-28T08:46:58;-0.52;73.12
65972;SHT31;52726;48.852;9.152;2023-02-28T08:49:23;-0.49;72.99
65972;SHT31;52726;48.852;9.152;2023-02-28T08:51:48;-0.49;73.89
65972;SHT31;52726;48.852;9.152;2023-02-28T08:54:14;-0.50;72.93
65972;SHT31;52726;48.852;9.152;2023-02-28T08:56:45;-0.40;72.93
65972;SHT31;52726;48.852;9.152;2023-02-28T08:59:11;-0.40;72.76
65972;SHT31;52726;48.852;9.152;2023-02-28T09:01:37;-0.41;73.53
65972;SHT31;52726;48.852;9.152;2023-02-28T09:04:03;-0.34;72.59
65972;SHT31;52726;48.852;9.152;2023-02-28T09:06:28;-0.36;72.64
65972;SHT31;52726;48.852;9.152;2023-02-28T09:08:56;-0.34;73.24
65972;SHT31;52726;48.852;9.152;2023-02-28T09:11:23;-0.26;72.91
65972;SHT31;52726;48.852;9.152;2023-02-28T09:13:48;-0.19;71.77
65972;SHT31;52726;48.852;9.152;2023-02-28T09:16:15;-0.23;72.84
65972;SHT31;52726;48.852;9.152;2023-02-28T09:18:41;-0.29;72.65
65972;SHT31;52726;48.852;9.152;2023-02-28T09:21:09;-0.13;72.27
65972;SHT31;52726;48.852;9.152;2023-02-28T09:23:35;0.02;71.27
65972;SHT31;52726;48.852;9.152;2023-02-28T09:26:03;0.22;70.10
65972;SHT31;52726;48.852;9.152;2023-02-28T09:28:29;0.22;69.70
65972;SHT31;52726;48.852;9.152;2023-02-28T09:30:55;0.29;69.53
65972;SHT31;52726;48.852;9.152;2023-02-28T09:33:21;0.19;70.15
65972;SHT31;52726;48.852;9.152;2023-02-28T09:35:48;0.15;70.32
65972;SHT31;52726;48.852;9.152;2023-02-28T09:38:13;0.25;69.66
65972;SHT31;52726;48.852;9.152;2023-02-28T09:40:51;0.50;69.85
65972;SHT31;52726;48.852;9.152;2023-02-28T09:43:20;0.40;68.81
65972;SHT31;52726;48.852;9.152;2023-02-28T09:45:56;0.63;67.27
65972;SHT31;52726;48.852;9.152;2023-02-28T09:48:31;0.56;67.87
65972;SHT31;52726;48.852;9.152;2023-02-28T09:51:12;0.60;67.39
65972;SHT31;52726;48.852;9.152;2023-02-28T09:53:39;0.57;67.58
65972;SHT31;52726;48.852;9.152;2023-02-28T09:56:09;0.74;67.58
65972;SHT31;52726;48.852;9.152;2023-02-28T10:01:18;0.91;66.06
65972;SHT31;52726;48.852;9.152;2023-02-28T10:06:42;0.84;66.79
65972;SHT31;52726;48.852;9.152;2023-02-28T10:09:31;0.88;66.24
65972;SHT31;52726;48.852;9.152;2023-02-28T10:12:21;0.99;65.61
65972;SHT31;52726;48.852;9.152;2023-02-28T10:15:13;1.02;64.64
65972;SHT31;52726;48.852;9.152;2023-02-28T10:17:39;1.09;65.60
65972;SHT31;52726;48.852;9.152;2023-02-28T10:20:11;1.24;64.87
65972;SHT31;52726;48.852;9.152;2023-02-28T10:22:53;1.26;64.31
65972;SHT31;52726;48.852;9.152;2023-02-28T10:26:19;1.29;64.69
65972;SHT31;52726;48.852;9.152;2023-02-28T10:28:38;1.34;64.05
65972;SHT31;52726;48.852;9.152;2023-02-28T10:31:04;1.28;63.69
65972;SHT31;52726;48.852;9.152;2023-02-28T10:33:34;1.39;64.35
65972;SHT31;52726;48.852;9.152;2023-02-28T10:36:02;1.50;64.03
65972;SHT31;52726;48.852;9.152;2023-02-28T10:38:33;1.53;63.39
65972;SHT31;52726;48.852;9.152;2023-02-28T10:41:31;1.63;64.42
65972;SHT31;52726;48.852;9.152;2023-02-28T10:44:14;1.90;62.99
65972;SHT31;52726;48.852;9.152;2023-02-28T10:46:41;1.90;62.94
65972;SHT31;52726;48.852;9.152;2023-02-28T10:49:14;1.97;62.39
65972;SHT31;52726;48.852;9.152;2023-02-28T10:55:20;2.08;62.79
65972;SHT31;52726;48.852;9.152;2023-02-28T10:57:46;1.97;63.74
65972;SHT31;52726;48.852;9.152;2023-02-28T11:00:21;1.95;62.02
65972;SHT31;52726;48.852;9.152;2023-02-28T11:02:47;2.08;63.78
65972;SHT31;52726;48.852;9.152;2023-02-28T11:05:34;2.26;62.70
65972;SHT31;52726;48.852;9.152;2023-02-28T11:08:21;2.60;61.41
65972;SHT31;52726;48.852;9.152;2023-02-28T11:10:53;2.67;61.02
65972;SHT31;52726;48.852;9.152;2023-02-28T11:13:21;2.70;60.28
65972;SHT31;52726;48.852;9.152;2023-02-28T11:15:56;2.72;61.01
65972;SHT31;52726;48.852;9.152;2023-02-28T11:20:50;3.00;59.67
65972;SHT31;52726;48.852;9.152;2023-02-28T11:23:16;2.84;61.03
65972;SHT31;52726;48.852;9.152;2023-02-28T11:25:47;2.97;60.40
65972;SHT31;52726;48.852;9.152;2023-02-28T11:28:30;3.04;61.30
65972;SHT31;52726;48.852;9.152;2023-02-28T11:31:15;3.15;61.14
65972;SHT31;52726;48.852;9.152;2023-02-28T11:33:53;3.09;60.13
65972;SHT31;52726;48.852;9.152;2023-02-28T11:39:10;3.09;59.84
65972;SHT31;52726;48.852;9.152;2023-02-28T11:44:45;3.07;60.41
65972;SHT31;52726;48.852;9.152;2023-02-28T11:47:53;3.12;59.84
65972;SHT31;52726;48.852;9.152;2023-02-28T12:16:52;3.59;58.50
65972;SHT31;52726;48.852;9.152;2023-02-28T12:22:32;3.94;56.43
65972;SHT31;52726;48.852;9.152;2023-02-28T12:27:46;4.10;56.63
65972;SHT31;52726;48.852;9.152;2023-02-28T12:30:24;4.22;55.60
65972;SHT31;52726;48.852;9.152;2023-02-28T12:36:35;4.31;54.93
65972;SHT31;52726;48.852;9.152;2023-02-28T12:39:13;4.22;56.44
65972;SHT31;52726;48.852;9.152;2023-02-28T12:41:49;4.58;55.09
65972;SHT31;52726;48.852;9.152;2023-02-28T12:44:55;4.58;55.30
65972;SHT31;52726;48.852;9.152;2023-02-28T12:47:22;4.55;55.04
65972;SHT31;52726;48.852;9.152;2023-02-28T12:50:07;4.63;56.59
65972;SHT31;52726;48.852;9.152;2023-02-28T13:04:42;4.41;56.00
65972;SHT31;52726;48.852;9.152;2023-02-28T13:09:59;4.65;54.03
65972;SHT31;52726;48.852;9.152;2023-02-28T13:12:26;4.48;54.76
65972;SHT31;52726;48.852;9.152;2023-02-28T13:15:08;4.40;55.91
65972;SHT31;52726;48.852;9.152;2023-02-28T13:18:04;4.59;55.14
65972;SHT31;52726;48.852;9.152;2023-02-28T13:20:34;4.63;53.22
65972;SHT31;52726;48.852;9.152;2023-02-28T13:23:00;4.37;54.49
65972;SHT31;52726;48.852;9.152;2023-02-28T13:28:00;4.49;54.17
65972;SHT31;52726;48.852;9.152;2023-02-28T13:36:46;4.63;55.18
65972;SHT31;52726;48.852;9.152;2023-02-28T13:47:54;4.77;55.44
65972;SHT31;52726;48.852;9.152;2023-02-28T14:03:56;4.89;53.93
65972;SHT31;52726;48.852;9.152;2023-02-28T14:07:09;4.89;55.10
65972;SHT31;52726;48.852;9.152;2023-02-28T14:17:50;5.17;52.85
65972;SHT31;52726;48.852;9.152;2023-02-28T14:21:34;5.31;52.80
65972;SHT31;52726;48.852;9.152;2023-02-28T14:35:18;5.41;54.23
65972;SHT31;52726;48.852;9.152;2023-02-28T14:37:45;5.34;53.00
65972;SHT31;52726;48.852;9.152;2023-02-28T14:40:15;5.21;54.18
65972;SHT31;52726;48.852;9.152;2023-02-28T14:42:47;5.30;54.45
65972;SHT31;52726;48.852;9.152;2023-02-28T14:45:20;5.08;53.25
65972;SHT31;52726;48.852;9.152;2023-02-28T14:47:46;5.20;53.87
65972;SHT31;52726;48.852;9.152;2023-02-28T14:50:22;5.26;53.24
65972;SHT31;52726;48.852;9.152;2023-02-28T14:52:52;5.54;52.03
65972;SHT31;52726;48.852;9.152;2023-02-28T14:55:19;5.47;51.57
65972;SHT31;52726;48.852;9.152;2023-02-28T14:57:55;5.28;54.15
65972;SHT31;52726;48.852;9.152;2023-02-28T15:00:29;5.47;53.92
65972;SHT31;52726;48.852;9.152;2023-02-28T15:02:56;5.41;53.82
65972;SHT31;52726;48.852;9.152;2023-02-28T15:05:30;5.38;53.32
65972;SHT31;52726;48.852;9.152;2023-02-28T15:08:15;5.24;55.23
65972;SHT31;52726;48.852;9.152;2023-02-28T15:13:24;5.35;53.44
65972;SHT31;52726;48.852;9.152;2023-02-28T15:15:56;5.51;52.42
65972;SHT31;52726;48.852;9.152;2023-02-28T15:21:03;5.28;55.93
65972;SHT31;52726;48.852;9.152;2023-02-28T15:23:29;5.45;52.18
65972;SHT31;52726;48.852;9.152;2023-02-28T15:25:55;5.17;53.98
65972;SHT31;52726;48.852;9.152;2023-02-28T15:28:23;5.04;53.86
65972;SHT31;52726;48.852;9.152;2023-02-28T15:31:46;4.83;54.95
65972;SHT31;52726;48.852;9.152;2023-02-28T15:34:06;4.94;55.19
65972;SHT31;52726;48.852;9.152;2023-02-28T15:36:34;4.84;55.45
65972;SHT31;52726;48.852;9.152;2023-02-28T15:39:03;4.77;56.42
65972;SHT31;52726;48.852;9.152;2023-02-28T15:41:43;4.84;54.93
65972;SHT31;52726;48.852;9.152;2023-02-28T15:44:37;5.01;54.02
65972;SHT31;52726;48.852;9.152;2023-02-28T15:47:14;5.10;53.56
65972;SHT31;52726;48.852;9.152;2023-02-28T15:49:52;5.03;53.62
65972;SHT31;52726;48.852;9.152;2023-02-28T15:52:27;4.89;54.58
65972;SHT31;52726;48.852;9.152;2023-02-28T15:54:53;4.72;56.29
65972;SHT31;52726;48.852;9.152;2023-02-28T15:57:25;4.59;55.95
65972;SHT31;52726;48.852;9.152;2023-02-28T15:59:56;4.63;55.46
65972;SHT31;52726;48.852;9.152;2023-02-28T16:02:35;4.76;55.29
65972;SHT31;52726;48.852;9.152;2023-02-28T16:07:40;4.81;54.90
65972;SHT31;52726;48.852;9.152;2023-02-28T16:10:09;4.81;55.30
65972;SHT31;52726;48.852;9.152;2023-02-28T16:12:36;4.59;56.66
65972;SHT31;52726;48.852;9.152;2023-02-28T16:15:06;4.48;57.47
65972;SHT31;52726;48.852;9.152;2023-02-28T16:17:38;4.32;58.35
65972;SHT31;52726;48.852;9.152;2023-02-28T16:20:15;4.27;57.51
65972;SHT31;52726;48.852;9.152;2023-02-28T16:22:42;4.25;57.41
65972;SHT31;52726;48.852;9.152;2023-02-28T16:25:14;4.48;56.53
65972;SHT31;52726;48.852;9.152;2023-02-28T16:27:40;4.51;55.83
65972;SHT31;52726;48.852;9.152;2023-02-28T16:30:07;4.51;55.70
65972;SHT31;52726;48.852;9.152;2023-02-28T16:32:35;4.46;55.69
65972;SHT31;52726;48.852;9.152;2023-02-28T16:35:02;4.27;56.89
65972;SHT31;52726;48.852;9.152;2023-02-28T16:37:28;4.10;57.53
65972;SHT31;52726;48.852;9.152;2023-02-28T16:39:53;3.93;59.42
65972;SHT31;52726;48.852;9.152;2023-02-28T16:42:23;3.82;60.29
65972;SHT31;52726;48.852;9.152;2023-02-28T16:44:51;3.72;60.28
65972;SHT31;52726;48.852;9.152;2023-02-28T16:47:17;3.59;61.31
65972;SHT31;52726;48.852;9.152;2023-02-28T16:49:42;3.49;61.10
65972;SHT31;52726;48.852;9.152;2023-02-28T16:52:09;3.40;61.16
65972;SHT31;52726;48.852;9.152;2023-02-28T16:54:34;3.38;61.26
65972;SHT31;52726;48.852;9.152;2023-02-28T16:57:00;3.29;61.72
65972;SHT31;52726;48.852;9.152;2023-02-28T16:59:26;3.25;61.45
65972;SHT31;52726;48.852;9.152;2023-02-28T17:01:53;3.18;61.86
65972;SHT31;52726;48.852;9.152;2023-02-28T17:04:19;3.09;61.97
65972;SHT31;52726;48.852;9.152;2023-02-28T17:06:44;3.04;62.09
65972;SHT31;52726;48.852;9.152;2023-02-28T17:09:16;2.98;62.69
65972;SHT31;52726;48.852;9.152;2023-02-28T17:11:47;2.96;62.36
65972;SHT31;52726;48.852;9.152;2023-02-28T17:14:13;2.94;62.40
65972;SHT31;52726;48.852;9.152;2023-02-28T17:17:00;2.89;62.32
65972;SHT31;52726;48.852;9.152;2023-02-28T17:19:47;2.77;63.04
65972;SHT31;52726;48.852;9.152;2023-02-28T17:22:15;2.75;63.22
65972;SHT31;52726;48.852;9.152;2023-02-28T17:24:41;2.70;62.95
65972;SHT31;52726;48.852;9.152;2023-02-28T17:27:15;2.64;63.63
65972;SHT31;52726;48.852;9.152;2023-02-28T17:29:41;2.63;63.14
65972;SHT31;52726;48.852;9.152;2023-02-28T17:32:06;2.57;63.48
65972;SHT31;52726;48.852;9.152;2023-02-28T17:34:32;2.46;64.30
65972;SHT31;52726;48.852;9.152;2023-02-28T17:36:57;2.32;64.41
65972;SHT31;52726;48.852;9.152;2023-02-28T17:39:22;2.28;64.51
65972;SHT31;52726;48.852;9.152;2023-02-28T17:41:51;2.25;64.79
65972;SHT31;52726;48.852;9.152;2023-02-28T17:44:18;2.22;64.70
65972;SHT31;52726;48.852;9.152;2023-02-28T17:46:45;2.25;64.58
65972;SHT31;52726;48.852;9.152;2023-02-28T17:49:10;2.21;64.81
65972;SHT31;52726;48.852;9.152;2023-02-28T17:51:35;2.20;64.60
65972;SHT31;52726;48.852;9.152;2023-02-28T17:54:01;2.15;64.74
65972;SHT31;52726;48.852;9.152;2023-02-28T17:56:27;2.08;65.28
65972;SHT31;52726;48.852;9.152;2023-02-28T17:58:54;2.10;65.03
65972;SHT31;52726;48.852;9.152;2023-02-28T18:01:21;2.08;65.13
65972;SHT31;52726;48.852;9.152;2023-02-28T18:03:47;2.04;65.09
65972;SHT31;52726;48.852;9.152;2023-02-28T18:06:28;1.98;65.40
65972;SHT31;52726;48.852;9.152;2023-02-28T18:08:56;1.91;65.71
65972;SHT31;52726;48.852;9.152;2023-02-28T18:11:22;1.91;65.43
65972;SHT31;52726;48.852;9.152;2023-02-28T18:14:19;1.91;65.20
65972;SHT31;52726;48.852;9.152;2023-02-28T18:16:45;1.91;65.28
65972;SHT31;52726;48.852;9.152;2023-02-28T18:19:11;1.81;65.87
65972;SHT31;52726;48.852;9.152;2023-02-28T18:21:42;1.81;65.70
65972;SHT31;52726;48.852;9.152;2023-02-28T18:24:09;1.78;65.39
65972;SHT31;52726;48.852;9.152;2023-02-28T18:26:35;1.70;65.88
65972;SHT31;52726;48.852;9.152;2023-02-28T18:29:01;1.63;66.04
65972;SHT31;52726;48.852;9.152;2023-02-28T18:31:26;1.64;66.13
65972;SHT31;52726;48.852;9.152;2023-02-28T18:33:51;1.66;66.06
65972;SHT31;52726;48.852;9.152;2023-02-28T18:36:18;1.68;65.85
65972;SHT31;52726;48.852;9.152;2023-02-28T18:38:45;1.68;65.91
65972;SHT31;52726;48.852;9.152;2023-02-28T18:41:11;1.60;66.25